createdAt,value
2024-03-12T00:00:03.162Z,100465.91
2024-03-12T00:05:21.625Z,100466.53
2024-03-12T00:10:28.626Z,100473.13
2024-03-12T00:15:42.415Z,100448.34
2024-03-12T00:26:04.839Z,100467.81
2024-03-12T00:31:16.240Z,100462.03
2024-03-12T00:36:38.516Z,100467.25
2024-03-12T00:41:46.007Z,100460.34
2024-03-12T00:47:02.571Z,100462.72
2024-03-12T00:52:35.587Z,100468.09
2024-03-12T00:57:54.022Z,100484.72
2024-03-12T01:03:16.638Z,100476.16
2024-03-12T01:08:26.477Z,100487.06
2024-03-12T01:13:43.609Z,100486.22
2024-03-12T01:24:10.171Z,100480.31
2024-03-12T01:29:38.728Z,100478.59
2024-03-12T01:34:46.215Z,100465.41
2024-03-12T01:39:57.017Z,100476.66
2024-03-12T01:45:10.763Z,100485.69
2024-03-12T01:55:56.007Z,100482.41
2024-03-12T02:01:04.421Z,100491.47
2024-03-12T02:06:30.077Z,100494.97
2024-03-12T02:11:46.996Z,100492.47
2024-03-12T02:16:59.925Z,100479.56
2024-03-12T02:27:57.979Z,100505.00
2024-03-12T02:33:10.257Z,100509.41
2024-03-12T02:43:52.664Z,100508.47
2024-03-12T02:49:05.205Z,100512.22
2024-03-12T02:59:29.938Z,100512.91
2024-03-12T03:04:41.246Z,100505.38
2024-03-12T03:09:50.510Z,100495.69
2024-03-12T03:15:01.539Z,100520.41
2024-03-12T03:20:16.232Z,100511.03
2024-03-12T03:25:37.154Z,100523.63
2024-03-12T03:30:49.613Z,100539.63
2024-03-12T03:36:10.619Z,100504.72
2024-03-12T03:41:45.373Z,100520.53
2024-03-12T03:47:03.272Z,100540.63
2024-03-12T03:52:11.995Z,100539.13
2024-03-12T03:57:21.270Z,100549.91
2024-03-12T04:02:35.178Z,100549.91
2024-03-12T04:08:04.671Z,100556.03
2024-03-12T04:13:12.445Z,100569.66
2024-03-12T04:18:23.822Z,100569.81
2024-03-12T04:23:41.258Z,100576.91
2024-03-12T04:28:49.664Z,100583.97
2024-03-12T04:34:02.216Z,100594.41
2024-03-12T04:39:32.522Z,100593.31
2024-03-12T04:50:24.524Z,100606.06
2024-03-12T04:55:36.588Z,100619.69
2024-03-12T05:00:55.877Z,100599.06
2024-03-12T05:06:08.731Z,100596.13
2024-03-12T05:11:27.280Z,100621.03
2024-03-12T05:16:39.444Z,100626.47
2024-03-12T05:22:05.320Z,100628.28
2024-03-12T05:27:34.333Z,100627.13
2024-03-12T05:32:42.572Z,100629.50
2024-03-12T05:38:06.605Z,100620.31
2024-03-12T05:43:30.654Z,100642.34
2024-03-12T05:53:59.176Z,100633.97
2024-03-12T05:59:10.851Z,100644.88
2024-03-12T06:04:23.955Z,100648.44
2024-03-12T06:09:40.344Z,100633.13
2024-03-12T06:14:50.008Z,100653.50
2024-03-12T06:20:02.211Z,100637.59
2024-03-12T06:25:14.848Z,100637.75
2024-03-12T06:30:32.185Z,100643.91
2024-03-12T06:35:45.113Z,100642.03
2024-03-12T06:40:52.922Z,100653.66
2024-03-12T06:45:58.620Z,100645.75
2024-03-12T06:56:46.606Z,100652.03
2024-03-12T07:01:54.833Z,100658.50
2024-03-12T07:07:22.662Z,100663.00
2024-03-12T07:12:35.630Z,100630.72
2024-03-12T07:17:43.976Z,100651.38
2024-03-12T07:22:52.857Z,100666.97
2024-03-12T07:28:19.937Z,100658.50
2024-03-12T07:33:35.036Z,100659.41
2024-03-12T07:38:56.964Z,100668.84
2024-03-12T07:44:08.082Z,100656.06
2024-03-12T07:49:22.883Z,100683.59
2024-03-12T07:54:36.453Z,100662.50
2024-03-12T07:59:50.264Z,100677.56
2024-03-12T08:04:58.543Z,100671.25
2024-03-12T08:10:17.122Z,100657.41
2024-03-12T08:15:32.550Z,100658.50
2024-03-12T08:20:47.868Z,100630.91
2024-03-12T08:26:00.618Z,100652.16
2024-03-12T08:31:28.438Z,100646.81
2024-03-12T08:36:48.095Z,100653.59
2024-03-12T08:41:55.569Z,100638.16
2024-03-12T08:47:08.225Z,100661.41
2024-03-12T08:52:23.919Z,100650.06
2024-03-12T08:57:29.668Z,100654.91
2024-03-12T09:02:54.679Z,100641.38
2024-03-12T09:08:06.700Z,100645.84
2024-03-12T09:13:17.271Z,100671.06
2024-03-12T09:18:27.815Z,100648.81
2024-03-12T09:23:45.237Z,100647.28
2024-03-12T09:29:08.347Z,100618.91
2024-03-12T09:34:25.817Z,100646.50
2024-03-12T09:45:13.700Z,100646.56
2024-03-12T09:50:28.981Z,100621.81
2024-03-12T10:01:22.800Z,100614.25
2024-03-12T10:06:42.488Z,100647.78
2024-03-12T10:17:27.553Z,100623.47
2024-03-12T10:28:07.589Z,100639.06
2024-03-12T10:33:21.857Z,100619.59
2024-03-12T10:38:38.633Z,100611.25
2024-03-12T10:43:50.473Z,100622.00
2024-03-12T10:49:02.968Z,100610.56
2024-03-12T10:54:18.423Z,100609.63
2024-03-12T10:59:29.074Z,100604.69
2024-03-12T11:04:41.043Z,100611.59
2024-03-12T11:09:58.770Z,100607.06
2024-03-12T11:15:10.792Z,100605.41
2024-03-12T11:20:29.640Z,100608.72
2024-03-12T11:25:51.182Z,100623.50
2024-03-12T11:31:10.191Z,100620.22
2024-03-12T11:36:27.835Z,100605.50
2024-03-12T11:42:10.628Z,100618.66
2024-03-12T11:47:35.501Z,100600.34
2024-03-12T11:52:49.373Z,100543.28
2024-03-12T11:58:03.651Z,100617.28
2024-03-12T12:03:18.175Z,100604.59
2024-03-12T12:13:52.321Z,100617.91
2024-03-12T12:19:10.580Z,100623.25
2024-03-12T12:24:30.651Z,100605.31
2024-03-12T12:29:39.146Z,100612.91
2024-03-12T12:35:00.385Z,100607.03
2024-03-12T12:47:50.603Z,100599.00
2024-03-12T12:52:59.956Z,100613.16
2024-03-12T12:58:12.854Z,100611.00
2024-03-12T13:03:22.200Z,100617.22
2024-03-12T13:08:33.499Z,100602.38
2024-03-12T13:13:40.653Z,100580.59
2024-03-12T13:18:52.841Z,100601.63
2024-03-12T13:24:08.283Z,100604.13
2024-03-12T13:29:19.243Z,100595.69
2024-03-12T13:34:33.631Z,100598.44
2024-03-12T13:39:39.794Z,100584.38
2024-03-12T13:44:51.940Z,100605.13
2024-03-12T13:50:00.606Z,100584.06
2024-03-12T13:55:13.179Z,100570.88
2024-03-12T14:00:21.213Z,100591.75
2024-03-12T14:05:29.953Z,100595.31
2024-03-12T14:21:14.506Z,100590.41
2024-03-12T14:31:46.204Z,100607.31
2024-03-12T14:36:56.277Z,100604.38
2024-03-12T14:47:21.861Z,100602.94
2024-03-12T14:52:43.390Z,100596.66
2024-03-12T14:57:49.991Z,100598.56
2024-03-12T15:02:59.361Z,100609.72
2024-03-12T15:08:16.621Z,100618.19
2024-03-12T15:13:28.250Z,100610.06
2024-03-12T15:18:34.267Z,100627.81
2024-03-12T15:23:42.984Z,100626.53
2024-03-12T15:28:49.763Z,100616.53
2024-03-12T15:33:55.134Z,100628.97
2024-03-12T15:39:04.669Z,100632.72
2024-03-12T15:44:14.359Z,100641.66
2024-03-12T15:49:21.673Z,100639.81
2024-03-12T15:54:36.838Z,100642.84
2024-03-12T15:59:42.795Z,100647.16
2024-03-12T16:04:48.676Z,100644.41
2024-03-12T16:10:14.267Z,100656.47
2024-03-12T16:15:25.617Z,100657.69
2024-03-12T16:20:33.453Z,100654.69
2024-03-12T16:25:43.426Z,100664.63
2024-03-12T16:30:49.519Z,100647.41
2024-03-12T16:36:06.050Z,100654.25
2024-03-12T16:46:32.042Z,100666.13
2024-03-12T16:51:45.086Z,100653.50
2024-03-12T16:57:05.402Z,100669.88
2024-03-12T17:02:21.923Z,100647.81
2024-03-12T17:07:37.938Z,100667.72
2024-03-12T17:12:52.531Z,100675.63
2024-03-12T17:18:00.952Z,100668.13
2024-03-12T17:23:13.038Z,100671.47
2024-03-12T17:28:23.835Z,100671.50
2024-03-12T17:33:35.272Z,100667.06
2024-03-12T17:38:53.278Z,100666.41
2024-03-12T17:44:00.707Z,100635.50
2024-03-12T17:49:08.328Z,100660.22
2024-03-12T17:54:20.609Z,100661.50
2024-03-12T17:59:40.014Z,100663.81
2024-03-12T18:04:46.205Z,100661.97
2024-03-12T18:09:56.129Z,100667.19
2024-03-12T18:15:13.005Z,100663.09
2024-03-12T18:20:24.767Z,100656.47
2024-03-12T18:30:54.144Z,100662.50
2024-03-12T18:36:01.222Z,100666.66
2024-03-12T18:46:34.541Z,100669.19
2024-03-12T18:51:41.049Z,100636.34
2024-03-12T18:56:56.624Z,100666.50
2024-03-12T19:02:12.735Z,100670.41
2024-03-12T19:07:23.451Z,100638.75
2024-03-12T19:12:52.621Z,100678.69
2024-03-12T19:18:08.986Z,100674.41
2024-03-12T19:23:18.154Z,100675.34
2024-03-12T19:28:23.605Z,100667.66
2024-03-12T19:33:34.226Z,100672.03
2024-03-12T19:38:43.415Z,100671.56
2024-03-12T19:44:03.145Z,100669.50
2024-03-12T19:49:14.718Z,100668.91
2024-03-12T19:54:26.861Z,100673.78
2024-03-12T19:59:40.021Z,100676.88
2024-03-12T20:04:47.060Z,100676.56
2024-03-12T20:09:54.470Z,100682.22
2024-03-12T20:15:15.968Z,100688.00
2024-03-12T20:25:41.788Z,100693.56
2024-03-12T20:30:48.993Z,100683.00
2024-03-12T20:36:00.459Z,100685.16
2024-03-12T20:41:10.569Z,100689.75
2024-03-12T20:46:19.117Z,100683.91
2024-03-12T20:51:30.391Z,100686.22
2024-03-12T20:56:39.666Z,100694.34
2024-03-12T21:01:52.584Z,100702.13
2024-03-12T21:07:09.303Z,100674.97
2024-03-12T21:12:27.388Z,100707.91
2024-03-12T21:17:33.685Z,100702.63
2024-03-12T21:22:42.160Z,100707.09
2024-03-12T21:33:20.755Z,100705.66
2024-03-12T21:38:39.948Z,100704.44
2024-03-12T21:43:49.680Z,100693.69
2024-03-12T21:48:57.088Z,100706.88
2024-03-12T21:54:09.281Z,100708.72
2024-03-12T21:59:21.574Z,100719.66
2024-03-12T22:04:28.698Z,100704.97
2024-03-12T22:09:42.155Z,100735.50
2024-03-12T22:14:52.512Z,100728.25
2024-03-12T22:19:59.976Z,100720.00
2024-03-12T22:25:10.065Z,100720.78
2024-03-12T22:30:25.386Z,100715.16
2024-03-12T22:35:33.388Z,100722.84
2024-03-12T22:40:45.152Z,100730.66
2024-03-12T22:45:56.210Z,100725.31
2024-03-12T22:51:12.383Z,100728.13
2024-03-12T22:56:29.032Z,100730.19
2024-03-12T23:01:42.717Z,100724.97
2024-03-12T23:06:50.760Z,100738.06
2024-03-12T23:12:02.061Z,100732.63
2024-03-12T23:17:09.122Z,100734.53
2024-03-12T23:22:16.863Z,100739.06
2024-03-12T23:27:25.690Z,100742.38
2024-03-12T23:32:32.111Z,100751.50
2024-03-12T23:37:39.555Z,100750.88
2024-03-12T23:42:49.261Z,100760.88
2024-03-12T23:47:58.403Z,100745.75
2024-03-12T23:53:11.877Z,100761.16
2024-03-12T23:58:19.536Z,100759.22
